createdAt,value
2018-09-13T00:01:37.156Z,87.10
2018-09-13T00:04:06.135Z,86.28
2018-09-13T00:06:35.575Z,86.58
2018-09-13T00:09:05.944Z,86.38
2018-09-13T00:11:35.011Z,86.79
2018-09-13T00:14:04.592Z,86.74
2018-09-13T00:16:33.603Z,87.54
2018-09-13T00:19:02.557Z,87.11
2018-09-13T00:21:31.598Z,86.37
2018-09-13T00:24:00.807Z,86.32
2018-09-13T00:26:30.017Z,86.44
2018-09-13T00:28:58.951Z,86.93
2018-09-13T00:31:27.977Z,86.69
2018-09-13T00:33:57.149Z,85.60
2018-09-13T00:36:26.112Z,86.27
2018-09-13T00:38:55.066Z,86.06
2018-09-13T00:41:24.031Z,87.13
2018-09-13T00:43:53.391Z,86.08
2018-09-13T00:46:22.333Z,85.37
2018-09-13T00:48:51.297Z,86.15
2018-09-13T00:51:20.285Z,86.57
2018-09-13T00:53:49.338Z,86.93
2018-09-13T00:56:18.508Z,86.48
2018-09-13T00:58:47.455Z,86.64
2018-09-13T01:01:16.469Z,85.63
2018-09-13T01:03:45.434Z,85.88
2018-09-13T01:06:14.448Z,85.35
2018-09-13T01:08:43.357Z,86.50
2018-09-13T01:11:12.360Z,85.91
2018-09-13T01:13:41.381Z,86.03
2018-09-13T01:16:10.394Z,85.73
2018-09-13T01:18:39.376Z,85.41
2018-09-13T01:21:08.417Z,85.28
2018-09-13T01:23:37.402Z,85.46
2018-09-13T01:26:06.723Z,85.94
2018-09-13T01:28:35.727Z,86.08
2018-09-13T01:31:04.759Z,86.02
2018-09-13T01:33:33.815Z,86.41
2018-09-13T01:36:02.959Z,85.25
2018-09-13T01:38:31.962Z,86.12
2018-09-13T01:41:00.895Z,86.48
2018-09-13T01:43:29.974Z,86.39
2018-09-13T01:45:58.959Z,86.27
2018-09-13T01:48:28.049Z,85.57
2018-09-13T01:50:57.092Z,86.32
2018-09-13T01:53:26.207Z,86.21
2018-09-13T01:55:55.304Z,86.35
2018-09-13T01:58:24.270Z,86.83
2018-09-13T02:00:53.542Z,87.00
2018-09-13T02:03:22.832Z,86.70
2018-09-13T02:05:51.838Z,86.42
2018-09-13T02:08:20.923Z,86.03
2018-09-13T02:10:49.933Z,86.28
2018-09-13T02:13:19.080Z,86.07
2018-09-13T02:15:48.213Z,86.33
2018-09-13T02:18:17.266Z,86.53
2018-09-13T02:20:47.383Z,87.21
2018-09-13T02:23:16.524Z,85.69
2018-09-13T02:25:45.534Z,86.55
2018-09-13T02:28:14.539Z,85.49
2018-09-13T02:30:43.477Z,85.30
2018-09-13T02:33:12.429Z,84.95
2018-09-13T02:35:41.449Z,85.10
2018-09-13T02:38:10.424Z,85.36
2018-09-13T02:40:39.555Z,85.11
2018-09-13T02:43:08.569Z,85.92
2018-09-13T02:45:37.548Z,85.36
2018-09-13T02:48:06.479Z,86.20
2018-09-13T02:50:35.447Z,86.77
2018-09-13T02:53:04.524Z,85.71
2018-09-13T02:55:33.544Z,85.46
2018-09-13T02:58:02.523Z,85.34
2018-09-13T03:00:31.515Z,85.79
2018-09-13T03:03:00.621Z,86.01
2018-09-13T03:05:29.753Z,87.05
2018-09-13T03:07:58.783Z,86.61
2018-09-13T03:10:27.826Z,86.42
2018-09-13T03:12:56.810Z,86.28
2018-09-13T03:15:26.226Z,86.85
2018-09-13T03:17:55.292Z,86.94
2018-09-13T03:20:24.348Z,87.10
2018-09-13T03:22:53.344Z,87.01
2018-09-13T03:25:22.418Z,86.83
2018-09-13T03:27:51.512Z,86.78
2018-09-13T03:30:20.470Z,86.16
2018-09-13T03:32:49.441Z,87.34
2018-09-13T03:35:18.634Z,86.72
2018-09-13T03:37:47.603Z,87.71
2018-09-13T03:40:16.623Z,88.14
2018-09-13T03:42:45.581Z,87.40
2018-09-13T03:45:14.541Z,86.94
2018-09-13T03:47:43.558Z,86.91
2018-09-13T03:50:12.781Z,86.37
2018-09-13T03:52:41.793Z,86.75
2018-09-13T03:55:10.753Z,86.82
2018-09-13T03:57:40.057Z,86.77
2018-09-13T04:00:09.010Z,86.83
2018-09-13T04:02:38.055Z,86.47
2018-09-13T04:05:07.449Z,86.61
2018-09-13T04:07:36.408Z,87.74
2018-09-13T04:10:05.921Z,87.01
2018-09-13T04:12:34.887Z,87.03
2018-09-13T04:15:03.874Z,86.24
2018-09-13T04:17:32.836Z,86.72
2018-09-13T04:20:01.794Z,86.01
2018-09-13T04:22:30.842Z,86.45
2018-09-13T04:24:59.804Z,86.54
2018-09-13T04:27:28.892Z,86.56
2018-09-13T04:29:57.879Z,86.92
2018-09-13T04:32:26.828Z,88.24
2018-09-13T04:34:55.761Z,87.77
2018-09-13T04:37:24.763Z,86.52
2018-09-13T04:39:53.715Z,87.53
2018-09-13T04:42:22.649Z,87.14
2018-09-13T04:44:51.757Z,87.69
2018-09-13T04:47:20.739Z,87.68
2018-09-13T04:49:49.686Z,87.60
2018-09-13T04:52:18.706Z,87.03
2018-09-13T04:54:47.675Z,87.03
2018-09-13T04:57:17.105Z,86.93
2018-09-13T04:59:46.049Z,87.07
2018-09-13T05:02:15.026Z,86.52
2018-09-13T05:04:44.046Z,86.48
2018-09-13T05:07:13.014Z,86.68
2018-09-13T05:09:42.010Z,86.54
2018-09-13T05:12:11.027Z,87.36
2018-09-13T05:14:40.093Z,87.79
2018-09-13T05:17:09.158Z,87.62
2018-09-13T05:19:38.159Z,86.77
2018-09-13T05:22:07.175Z,86.37
2018-09-13T05:24:36.132Z,86.66
2018-09-13T05:27:05.157Z,87.15
2018-09-13T05:29:34.201Z,87.46
2018-09-13T05:32:03.326Z,87.38
2018-09-13T05:34:32.348Z,86.69
2018-09-13T05:37:01.289Z,86.63
2018-09-13T05:39:30.311Z,86.80
2018-09-13T05:41:59.299Z,86.87
2018-09-13T05:44:28.305Z,86.89
2018-09-13T05:46:57.247Z,87.19
2018-09-13T05:49:26.410Z,85.95
2018-09-13T05:51:55.395Z,85.99
2018-09-13T05:54:24.359Z,86.28
2018-09-13T05:56:53.342Z,86.74
2018-09-13T05:59:22.265Z,87.03
2018-09-13T06:01:51.282Z,87.48
2018-09-13T06:04:20.319Z,86.73
2018-09-13T06:06:49.301Z,86.61
2018-09-13T06:09:18.371Z,86.92
2018-09-13T06:11:47.350Z,87.06
2018-09-13T06:14:16.310Z,86.93
2018-09-13T06:16:45.253Z,86.47
2018-09-13T06:19:14.215Z,86.90
2018-09-13T06:21:43.146Z,87.72
2018-09-13T06:24:12.087Z,87.42
2018-09-13T06:26:41.044Z,87.82
2018-09-13T06:29:09.944Z,87.45
2018-09-13T06:31:39.332Z,88.14
2018-09-13T06:34:08.303Z,88.07
2018-09-13T06:36:37.362Z,87.77
2018-09-13T06:39:08.221Z,88.29
2018-09-13T06:41:37.268Z,88.79
2018-09-13T06:44:06.478Z,88.80
2018-09-13T06:46:35.444Z,88.11
2018-09-13T06:49:04.467Z,88.68
2018-09-13T06:51:33.457Z,89.20
2018-09-13T06:54:02.546Z,88.95
2018-09-13T06:56:31.580Z,89.01
2018-09-13T06:59:00.547Z,89.59
2018-09-13T07:01:29.521Z,88.58
2018-09-13T07:03:58.556Z,89.66
2018-09-13T07:06:27.514Z,89.52
2018-09-13T07:08:56.658Z,90.05
2018-09-13T07:11:25.674Z,90.28
2018-09-13T07:13:54.800Z,89.10
2018-09-13T07:16:23.841Z,88.07
2018-09-13T07:18:52.782Z,88.71
2018-09-13T07:21:21.813Z,88.90
2018-09-13T07:23:50.764Z,89.24
2018-09-13T07:26:19.763Z,88.48
2018-09-13T07:28:49.104Z,89.24
2018-09-13T07:31:18.074Z,89.40
2018-09-13T07:33:47.079Z,88.45
2018-09-13T07:36:16.094Z,89.20
2018-09-13T07:38:45.111Z,87.70
2018-09-13T07:41:14.130Z,89.30
2018-09-13T07:43:43.095Z,88.63
2018-09-13T07:46:12.040Z,88.85
2018-09-13T07:48:41.026Z,88.79
2018-09-13T07:51:10.067Z,87.78
2018-09-13T07:53:39.130Z,87.09
2018-09-13T07:56:08.112Z,89.23
2018-09-13T07:58:37.059Z,89.87
2018-09-13T08:01:06.085Z,89.07
2018-09-13T08:03:35.074Z,87.95
2018-09-13T08:06:04.074Z,86.69
2018-09-13T08:08:33.047Z,86.58
2018-09-13T08:11:02.140Z,88.48
2018-09-13T08:13:31.112Z,88.85
2018-09-13T08:16:00.140Z,88.33
2018-09-13T08:18:29.100Z,87.06
2018-09-13T08:20:58.075Z,86.77
2018-09-13T08:23:27.051Z,87.65
2018-09-13T08:25:56.089Z,87.06
2018-09-13T08:28:25.076Z,87.72
2018-09-13T08:30:54.108Z,87.66
2018-09-13T08:33:23.316Z,87.95
2018-09-13T08:35:52.260Z,87.95
2018-09-13T08:38:21.239Z,86.63
2018-09-13T08:40:50.239Z,86.96
2018-09-13T08:43:19.260Z,87.22
2018-09-13T08:45:48.208Z,87.90
2018-09-13T08:48:17.212Z,86.97
2018-09-13T08:50:46.246Z,87.79
2018-09-13T08:53:15.193Z,87.08
2018-09-13T08:55:44.182Z,85.32
2018-09-13T08:58:13.271Z,85.46
2018-09-13T09:00:42.254Z,85.18
2018-09-13T09:03:11.321Z,84.75
2018-09-13T09:05:41.168Z,85.52
2018-09-13T09:08:10.135Z,84.41
2018-09-13T09:10:39.128Z,86.15
2018-09-13T09:13:08.202Z,85.46
2018-09-13T09:15:37.931Z,84.60
2018-09-13T09:18:06.928Z,84.64
2018-09-13T09:20:35.904Z,84.52
2018-09-13T09:23:04.895Z,83.55
2018-09-13T09:25:33.856Z,82.82
2018-09-13T09:28:03.128Z,83.33
2018-09-13T09:30:32.087Z,82.85
2018-09-13T09:33:01.041Z,81.29
2018-09-13T09:35:30.294Z,82.30
2018-09-13T09:38:00.029Z,82.28
2018-09-13T09:40:29.102Z,81.53
2018-09-13T09:42:58.170Z,81.46
2018-09-13T09:45:27.150Z,81.64
2018-09-13T09:47:56.152Z,79.91
2018-09-13T09:50:25.209Z,80.03
2018-09-13T09:52:54.217Z,78.86
2018-09-13T09:55:24.122Z,80.50
2018-09-13T09:57:53.784Z,77.25
2018-09-13T10:00:27.773Z,79.36
2018-09-13T10:02:56.856Z,78.10
2018-09-13T10:05:25.810Z,77.67
2018-09-13T10:07:54.891Z,77.19
2018-09-13T10:10:23.907Z,76.13
2018-09-13T10:12:52.883Z,77.42
2018-09-13T10:15:27.214Z,74.23
2018-09-13T10:18:01.393Z,73.35
2018-09-13T10:20:35.729Z,72.33
2018-09-13T10:23:10.107Z,74.13
2018-09-13T10:25:44.386Z,73.89
2018-09-13T10:28:18.799Z,75.22
2018-09-13T10:30:53.218Z,74.51
2018-09-13T10:33:27.560Z,72.32
2018-09-13T10:36:01.741Z,72.49
2018-09-13T10:38:36.132Z,74.26
2018-09-13T10:41:10.408Z,72.72
2018-09-13T10:43:44.778Z,74.28
2018-09-13T10:46:19.114Z,73.19
2018-09-13T10:48:53.288Z,71.69
2018-09-13T10:51:27.410Z,72.27
2018-09-13T10:53:59.305Z,72.35
2018-09-13T10:56:33.674Z,71.68
2018-09-13T10:59:08.152Z,72.54
2018-09-13T11:01:42.516Z,70.13
2018-09-13T11:04:11.600Z,71.46
2018-09-13T11:06:40.683Z,67.80
2018-09-13T11:09:12.152Z,70.08
2018-09-13T11:11:41.801Z,70.42
2018-09-13T11:14:22.907Z,70.46
2018-09-13T11:16:52.026Z,69.78
2018-09-13T11:19:20.989Z,70.45
2018-09-13T11:21:50.021Z,68.50
2018-09-13T11:24:18.979Z,70.15
2018-09-13T11:26:47.978Z,69.33
2018-09-13T11:29:17.032Z,69.27
2018-09-13T11:31:46.015Z,69.03
2018-09-13T11:34:15.126Z,68.54
2018-09-13T11:36:44.129Z,66.91
2018-09-13T11:39:13.712Z,66.25
2018-09-13T11:41:42.742Z,67.02
2018-09-13T11:44:11.720Z,68.65
2018-09-13T11:46:40.884Z,68.57
2018-09-13T11:49:09.857Z,68.06
2018-09-13T11:51:39.040Z,66.87
2018-09-13T11:54:08.028Z,68.60
2018-09-13T11:56:36.974Z,65.60
2018-09-13T11:59:05.979Z,66.61
2018-09-13T12:01:34.917Z,68.45
2018-09-13T12:04:03.902Z,67.15
2018-09-13T12:06:32.994Z,65.73
2018-09-13T12:09:01.996Z,66.07
2018-09-13T12:11:31.342Z,64.82
2018-09-13T12:14:00.349Z,66.39
2018-09-13T12:16:29.403Z,65.57
2018-09-13T12:18:58.406Z,64.79
2018-09-13T12:21:27.375Z,64.52
2018-09-13T12:23:56.336Z,64.69
2018-09-13T12:26:25.295Z,66.48
2018-09-13T12:28:54.330Z,66.67
2018-09-13T12:31:23.300Z,67.76
2018-09-13T12:33:52.311Z,66.24
2018-09-13T12:36:21.274Z,65.93
2018-09-13T12:38:50.268Z,66.64
2018-09-13T12:41:19.282Z,66.46
2018-09-13T12:43:48.331Z,66.88
2018-09-13T12:46:17.337Z,67.72
2018-09-13T12:48:46.330Z,65.99
2018-09-13T12:51:15.359Z,64.59
2018-09-13T12:53:44.407Z,64.61
2018-09-13T12:56:13.418Z,63.90
2018-09-13T12:58:42.453Z,64.13
2018-09-13T13:01:11.531Z,64.68
2018-09-13T13:03:40.560Z,65.36
2018-09-13T13:06:09.855Z,65.51
2018-09-13T13:08:38.880Z,64.83
2018-09-13T13:11:07.806Z,64.26
2018-09-13T13:13:36.838Z,65.67
2018-09-13T13:16:05.837Z,65.50
2018-09-13T13:18:34.896Z,64.28
2018-09-13T13:21:03.871Z,65.26
2018-09-13T13:23:32.805Z,66.12
2018-09-13T13:26:01.793Z,65.16
2018-09-13T13:28:30.801Z,64.80
2018-09-13T13:31:00.087Z,64.63
2018-09-13T13:33:29.059Z,63.54
2018-09-13T13:35:58.019Z,64.51
2018-09-13T13:38:27.063Z,63.92
2018-09-13T13:40:56.010Z,64.98
2018-09-13T13:43:24.973Z,64.39
2018-09-13T13:45:54.004Z,63.30
2018-09-13T13:48:23.017Z,64.34
2018-09-13T13:50:52.113Z,62.41
2018-09-13T13:53:21.102Z,64.59
2018-09-13T13:55:50.072Z,63.75
2018-09-13T13:58:19.055Z,65.12
2018-09-13T14:00:47.986Z,64.44
2018-09-13T14:03:17.033Z,64.56
2018-09-13T14:05:46.058Z,63.10
2018-09-13T14:08:15.023Z,64.06
2018-09-13T14:10:44.009Z,64.75
2018-09-13T14:13:13.246Z,63.98
2018-09-13T14:15:42.194Z,62.50
2018-09-13T14:18:11.130Z,63.50
2018-09-13T14:20:40.253Z,63.47
2018-09-13T14:23:09.170Z,62.76
2018-09-13T14:25:38.483Z,63.73
2018-09-13T14:28:07.444Z,63.75
2018-09-13T14:30:36.693Z,63.49
2018-09-13T14:33:05.678Z,63.44
2018-09-13T14:35:35.424Z,64.13
2018-09-13T14:38:04.354Z,62.82
2018-09-13T14:40:33.285Z,62.95
2018-09-13T14:43:02.259Z,63.18
2018-09-13T14:45:31.158Z,62.86
2018-09-13T14:48:00.219Z,63.92
2018-09-13T14:50:29.807Z,63.13
2018-09-13T14:52:58.856Z,62.14
2018-09-13T14:55:27.833Z,63.50
2018-09-13T14:57:56.854Z,63.64
2018-09-13T15:00:25.809Z,63.49
2018-09-13T15:02:54.794Z,62.81
2018-09-13T15:05:23.740Z,63.04
2018-09-13T15:07:52.716Z,63.54
2018-09-13T15:10:22.073Z,64.90
2018-09-13T15:12:51.071Z,64.88
2018-09-13T15:15:20.174Z,64.63
2018-09-13T15:17:49.173Z,63.91
2018-09-13T15:20:18.327Z,64.16
2018-09-13T15:22:47.350Z,63.13
2018-09-13T15:25:16.288Z,62.57
2018-09-13T15:27:45.421Z,63.56
2018-09-13T15:30:14.655Z,61.87
2018-09-13T15:32:43.644Z,62.22
2018-09-13T15:35:12.668Z,62.95
2018-09-13T15:37:41.830Z,61.93
2018-09-13T15:40:10.843Z,62.65
2018-09-13T15:42:39.802Z,62.87
2018-09-13T15:45:09.062Z,62.54
2018-09-13T15:47:38.031Z,62.91
2018-09-13T15:50:07.044Z,62.73
2018-09-13T15:52:36.041Z,62.33
2018-09-13T15:55:05.109Z,63.30
2018-09-13T15:57:34.169Z,62.10
2018-09-13T16:00:03.120Z,62.89
2018-09-13T16:02:32.370Z,62.04
2018-09-13T16:05:01.323Z,62.19
2018-09-13T16:07:30.911Z,62.43
2018-09-13T16:09:59.934Z,62.86
2018-09-13T16:12:30.105Z,61.77
2018-09-13T16:14:59.024Z,62.53
2018-09-13T16:17:29.237Z,62.87
2018-09-13T16:19:58.243Z,61.97
2018-09-13T16:22:27.524Z,61.95
2018-09-13T16:24:59.092Z,61.66
2018-09-13T16:27:28.135Z,62.16
2018-09-13T16:29:57.104Z,62.55
2018-09-13T16:32:27.209Z,63.02
2018-09-13T16:34:59.014Z,63.16
2018-09-13T16:38:34.964Z,63.26
2018-09-13T16:41:09.588Z,63.45
2018-09-13T16:43:43.940Z,63.95
2018-09-13T16:46:17.120Z,64.08
2018-09-13T16:48:46.056Z,64.99
2018-09-13T16:51:15.003Z,64.01
2018-09-13T16:53:43.982Z,64.42
2018-09-13T16:56:12.942Z,65.62
2018-09-13T16:58:41.865Z,65.10
2018-09-13T17:01:10.821Z,65.74
2018-09-13T17:03:39.857Z,65.52
2018-09-13T17:08:36.573Z,65.32
2018-09-13T17:11:05.613Z,66.09
2018-09-13T17:13:34.610Z,66.02
2018-09-13T17:16:03.587Z,66.24
2018-09-13T17:18:32.540Z,66.24
2018-09-13T17:21:01.473Z,67.25
2018-09-13T17:23:30.464Z,67.27
2018-09-13T17:25:59.520Z,68.25
2018-09-13T17:28:28.457Z,67.92
2018-09-13T17:30:57.396Z,67.69
2018-09-13T17:33:26.369Z,68.76
2018-09-13T17:35:55.345Z,69.43
2018-09-13T17:38:24.296Z,69.41
2018-09-13T17:40:53.266Z,69.83
2018-09-13T17:43:22.307Z,70.28
2018-09-13T17:45:51.349Z,70.04
2018-09-13T17:48:20.323Z,70.25
2018-09-13T17:50:49.276Z,71.42
2018-09-13T17:53:19.079Z,71.24
2018-09-13T17:55:48.092Z,71.44
2018-09-13T17:58:17.058Z,71.59
2018-09-13T18:00:46.012Z,72.29
2018-09-13T18:03:15.063Z,72.06
2018-09-13T18:05:44.035Z,71.86
2018-09-13T18:08:13.001Z,72.18
2018-09-13T18:10:41.956Z,71.89
2018-09-13T18:13:10.925Z,72.75
2018-09-13T18:15:39.902Z,73.12
2018-09-13T18:18:08.884Z,72.46
2018-09-13T18:20:37.885Z,72.71
2018-09-13T18:23:06.915Z,73.28
2018-09-13T18:25:35.858Z,72.95
2018-09-13T18:28:04.818Z,72.73
2018-09-13T18:30:33.846Z,73.56
2018-09-13T18:33:03.166Z,73.87
2018-09-13T18:35:32.089Z,74.51
2018-09-13T18:38:01.038Z,73.95
2018-09-13T18:40:30.039Z,74.42
2018-09-13T18:42:58.970Z,74.08
2018-09-13T18:45:27.948Z,74.27
2018-09-13T18:47:57.981Z,73.98
2018-09-13T18:50:27.112Z,73.97
2018-09-13T18:52:56.110Z,74.27
2018-09-13T18:55:24.993Z,73.66
2018-09-13T18:58:00.295Z,74.64
2018-09-13T19:00:29.294Z,74.38
2018-09-13T19:02:58.270Z,75.04
2018-09-13T19:05:27.419Z,74.38
2018-09-13T19:07:56.367Z,74.45
2018-09-13T19:10:25.491Z,73.75
2018-09-13T19:12:54.470Z,74.34
2018-09-13T19:15:23.465Z,74.00
2018-09-13T19:17:52.431Z,75.04
2018-09-13T19:20:22.272Z,73.53
2018-09-13T19:22:58.027Z,74.46
2018-09-13T19:25:27.007Z,74.17
2018-09-13T19:27:55.989Z,74.80
2018-09-13T19:30:24.922Z,73.73
2018-09-13T19:32:53.902Z,74.18
2018-09-13T19:35:22.887Z,74.96
2018-09-13T19:37:51.824Z,75.20
2018-09-13T19:40:21.549Z,75.71
2018-09-13T19:42:50.962Z,75.65
2018-09-13T19:45:19.964Z,75.66
2018-09-13T19:47:48.994Z,75.60
2018-09-13T19:50:18.319Z,75.24
2018-09-13T19:52:47.936Z,75.75
2018-09-13T19:55:16.948Z,75.02
2018-09-13T19:57:45.912Z,74.62
2018-09-13T20:00:15.650Z,74.97
2018-09-13T20:02:44.606Z,76.01
2018-09-13T20:05:13.608Z,76.39
2018-09-13T20:07:42.615Z,75.63
2018-09-13T20:10:11.600Z,76.10
2018-09-13T20:12:40.612Z,76.76
2018-09-13T20:15:09.617Z,76.45
2018-09-13T20:17:39.244Z,76.69
2018-09-13T20:20:08.321Z,76.47
2018-09-13T20:22:37.631Z,76.47
2018-09-13T20:25:06.844Z,76.52
2018-09-13T20:27:36.777Z,76.52
2018-09-13T20:30:06.803Z,77.46
2018-09-13T20:32:35.868Z,76.97
2018-09-13T20:35:04.976Z,77.42
2018-09-13T20:37:33.969Z,78.24
2018-09-13T20:40:02.969Z,78.13
2018-09-13T20:42:31.990Z,77.91
2018-09-13T20:45:01.152Z,77.61
2018-09-13T20:47:30.225Z,77.37
2018-09-13T20:49:59.267Z,77.57
2018-09-13T20:52:28.485Z,77.45
2018-09-13T20:54:57.487Z,77.48
2018-09-13T20:57:26.585Z,76.98
2018-09-13T20:59:55.509Z,77.08
2018-09-13T21:02:25.463Z,76.46
2018-09-13T21:04:54.439Z,77.39
2018-09-13T21:07:23.355Z,77.25
2018-09-13T21:09:52.493Z,78.00
2018-09-13T21:12:21.470Z,78.32
2018-09-13T21:14:50.576Z,78.90
2018-09-13T21:17:20.021Z,78.23
2018-09-13T21:19:49.180Z,78.42
2018-09-13T21:22:18.169Z,78.03
2018-09-13T21:24:47.112Z,77.93
2018-09-13T21:27:16.107Z,76.92
2018-09-13T21:29:45.100Z,77.53
2018-09-13T21:32:14.175Z,78.19
2018-09-13T21:34:43.148Z,79.07
2018-09-13T21:37:12.063Z,78.54
2018-09-13T21:39:41.226Z,76.94
2018-09-13T21:42:10.694Z,77.84
2018-09-13T21:44:39.806Z,78.98
2018-09-13T21:47:08.980Z,78.39
2018-09-13T21:49:37.991Z,78.23
2018-09-13T21:52:07.169Z,78.50
2018-09-13T21:54:36.392Z,78.76
2018-09-13T21:57:05.520Z,79.30
2018-09-13T21:59:34.563Z,79.51
2018-09-13T22:02:03.622Z,78.94
2018-09-13T22:04:33.100Z,77.86
2018-09-13T22:07:02.094Z,77.65
2018-09-13T22:09:31.211Z,79.01
2018-09-13T22:12:00.448Z,79.13
2018-09-13T22:14:29.521Z,77.97
2018-09-13T22:16:58.579Z,78.49
2018-09-13T22:19:27.670Z,79.51
2018-09-13T22:21:56.750Z,79.35
2018-09-13T22:24:27.571Z,78.72
2018-09-13T22:27:01.297Z,79.23
2018-09-13T22:29:33.481Z,79.65
2018-09-13T22:32:07.280Z,79.73
2018-09-13T22:34:42.510Z,78.80
2018-09-13T22:37:15.071Z,79.76
2018-09-13T22:39:48.160Z,79.37
2018-09-13T22:42:17.169Z,79.43
2018-09-13T22:44:46.196Z,79.52
2018-09-13T22:47:15.238Z,79.83
2018-09-13T22:49:44.254Z,79.91
2018-09-13T22:52:13.487Z,79.55
2018-09-13T22:54:42.450Z,80.20
2018-09-13T22:57:11.447Z,78.99
2018-09-13T22:59:40.430Z,78.62
2018-09-13T23:02:09.383Z,77.51
2018-09-13T23:04:38.425Z,79.11
2018-09-13T23:07:07.418Z,77.57
2018-09-13T23:09:36.513Z,76.44
2018-09-13T23:12:06.291Z,77.12
2018-09-13T23:14:35.321Z,78.27
2018-09-13T23:17:04.261Z,78.60
2018-09-13T23:19:33.306Z,78.05
2018-09-13T23:22:02.373Z,78.23
2018-09-13T23:24:31.376Z,78.00
2018-09-13T23:27:00.553Z,77.61
2018-09-13T23:29:29.486Z,79.20
2018-09-13T23:31:58.410Z,78.74
2018-09-13T23:34:27.357Z,79.18
2018-09-13T23:36:56.340Z,79.18
2018-09-13T23:39:25.465Z,78.43
2018-09-13T23:41:54.223Z,79.07
2018-09-13T23:44:23.167Z,78.68
2018-09-13T23:46:54.094Z,79.44
2018-09-13T23:49:23.101Z,79.91
2018-09-13T23:51:52.044Z,79.44
2018-09-13T23:54:21.014Z,78.22
2018-09-13T23:56:50.004Z,79.75
2018-09-13T23:59:18.971Z,77.67
